Météo Nord-Pas-de-Calais   La météo au plus près de chez vous

Station météorologique

Observations météo à Houdelaincourt (55248)

55248001 390 m Dernier relevé à 06:48
16.3°C
Humidité 89 % Vent 9 km/h 1020 hPa

Journée consultée

Vendredi 4 Septembre 2026

Synthèse de la journée

Périodes de référence en UTC

Température maximale

26.1°C

à 18:00

06h 06h

Température minimale

15.7°C

à 06:24

18h 18h

Rafale maximale

19 km/h

à 04:36

00h 00h

Précipitations

0 mm

Cumul quotidien

06h 06h

Ensoleillement

0h 0 mins

Durée quotidienne

00h 00h

Graphiques de la journée

Heure locale Réduire

Données détaillées

Relevés météo

Pas de 6 minutes Afficher les relevés infra-horaires
Relevés météo détaillés à Houdelaincourt pour le Vendredi 4 Septembre 2026
Heure Température °C Point de rosée °C Humidité % Vent moyen (raf.), km/h Précipitations mm Ensoleillement min Rayonnement global W/m² Pression hPa
06:48 16.3 °C 14.1 °C 87 % 8 km/h (11 km/h) 0 mm0 mm 0 min 0 W/m² 1019.7 hPa
06:42 16.2 °C 14.2 °C 88 % 8 km/h (12 km/h) 0 mm0 mm 0 min 0 W/m² 1019.6 hPa
06:36 16 °C 14.2 °C 89 % 8 km/h (13 km/h) 0 mm0 mm 0 min 0 W/m² 1019.7 hPa
06:30 15.9 °C 14.1 °C 89 % 7 km/h (13 km/h) 0 mm0 mm 0 min 0 W/m² 1019.7 hPa
06:24 15.7 °C 13.9 °C 89 % 7 km/h (11 km/h) 0 mm0 mm 0 min 0 W/m² 1019.8 hPa
06:18 15.9 °C 14.1 °C 89 % 8 km/h (13 km/h) 0 mm0 mm 0 min 0 W/m² 1019.7 hPa
06:12 15.8 °C 14.2 °C 90 % 8 km/h (13 km/h) 0 mm0 mm 0 min 0 W/m² 1019.8 hPa
06:06 16 °C 14 °C 88 % 8 km/h (12 km/h) 0 mm0 mm 0 min 0 W/m² 1019.8 hPa
06:00 16.2 °C 14.2 °C 88 % 8 km/h (14 km/h) 0 mm0 mm 0 min 0 W/m² 1020 hPa
05:54 16.3 °C 14.1 °C 87 % 9 km/h (16 km/h) 0 mm0 mm 0 min 0 W/m² 1019.9 hPa
05:48 16.1 °C 14.3 °C 89 % 9 km/h (16 km/h) 0 mm0 mm 0 min 0 W/m² 1020 hPa
05:42 16.2 °C 14.2 °C 88 % 9 km/h (15 km/h) 0 mm0 mm 0 min 0 W/m² 1020 hPa
05:36 16.2 °C 14.4 °C 89 % 9 km/h (15 km/h) 0 mm0 mm 0 min 0 W/m² 1020.1 hPa
05:30 16.3 °C 14.1 °C 87 % 9 km/h (14 km/h) 0 mm0 mm 0 min 0 W/m² 1020.1 hPa
05:24 16.3 °C 14.1 °C 87 % 9 km/h (13 km/h) 0 mm0 mm 0 min 0 W/m² 1020.1 hPa
05:18 16.2 °C 14.2 °C 88 % 9 km/h (13 km/h) 0 mm0 mm 0 min 0 W/m² 1020.1 hPa
05:12 16.1 °C 14.1 °C 88 % 9 km/h (11 km/h) 0 mm0 mm 0 min 0 W/m² 1020.2 hPa
05:06 16.3 °C 14.3 °C 88 % 9 km/h (11 km/h) 0 mm0 mm 0 min 0 W/m² 1020.3 hPa
05:00 16.1 °C 14.1 °C 88 % 8 km/h (11 km/h) 0 mm0 mm 0 min 0 W/m² 1020.3 hPa
04:54 16.3 °C 14 °C 86 % 9 km/h (14 km/h) 0 mm0 mm 0 min 0 W/m² 1020.4 hPa
04:48 16.9 °C 14.2 °C 84 % 11 km/h (16 km/h) 0 mm0 mm 0 min 0 W/m² 1020.3 hPa
04:42 17.2 °C 14.5 °C 84 % 12 km/h (19 km/h) 0 mm0 mm 0 min 0 W/m² 1020.4 hPa
04:36 17 °C 14.5 °C 85 % 12 km/h (19 km/h) 0 mm0 mm 0 min 0 W/m² 1020.5 hPa
04:30 16.4 °C 14.4 °C 88 % 10 km/h (13 km/h) 0 mm0 mm 0 min 0 W/m² 1020.7 hPa
04:24 16.3 °C 14 °C 86 % 9 km/h (12 km/h) 0 mm0 mm 0 min 0 W/m² 1020.8 hPa
04:18 16.9 °C 14.2 °C 84 % 9 km/h (13 km/h) 0 mm0 mm 0 min 0 W/m² 1020.8 hPa
04:12 17.4 °C 14.5 °C 83 % 10 km/h (13 km/h) 0 mm0 mm 0 min 0 W/m² 1020.8 hPa
04:06 17.2 °C 14.3 °C 83 % 10 km/h (12 km/h) 0 mm0 mm 0 min 0 W/m² 1020.8 hPa
04:00 17.4 °C 14.5 °C 83 % 10 km/h (12 km/h) 0 mm0 mm 0 min 0 W/m² 1020.9 hPa
03:54 17.1 °C 14.6 °C 85 % 10 km/h (12 km/h) 0 mm0 mm 0 min 0 W/m² 1020.9 hPa
03:48 17.2 °C 14.5 °C 84 % 10 km/h (12 km/h) 0 mm0 mm 0 min 0 W/m² 1021 hPa
03:42 17.1 °C 14.4 °C 84 % 10 km/h (12 km/h) 0 mm0 mm 0 min 0 W/m² 1021.1 hPa
03:36 17.1 °C 14.6 °C 85 % 10 km/h (12 km/h) 0 mm0 mm 0 min 0 W/m² 1021.1 hPa
03:30 17.1 °C 14.6 °C 85 % 10 km/h (12 km/h) 0 mm0 mm 0 min 0 W/m² 1021.2 hPa
03:24 17.2 °C 14.5 °C 84 % 9 km/h (11 km/h) 0 mm0 mm 0 min 0 W/m² 1021.2 hPa
03:18 17.1 °C 14.6 °C 85 % 8 km/h (10 km/h) 0 mm0 mm 0 min 0 W/m² 1021.2 hPa
03:12 16.8 °C 14.3 °C 85 % 9 km/h (11 km/h) 0 mm0 mm 0 min 0 W/m² 1021.3 hPa
03:06 17.1 °C 14.4 °C 84 % 9 km/h (11 km/h) 0 mm0 mm 0 min 0 W/m² 1021.2 hPa
03:00 16.9 °C 14.4 °C 85 % 8 km/h (10 km/h) 0 mm0 mm 0 min 0 W/m² 1021.4 hPa
02:54 16.7 °C 14.3 °C 86 % 8 km/h (10 km/h) 0 mm0 mm 0 min 0 W/m² 1021.3 hPa
02:48 16.8 °C 14.3 °C 85 % 8 km/h (10 km/h) 0 mm0 mm 0 min 0 W/m² 1021.3 hPa
02:42 16.9 °C 14.4 °C 85 % 8 km/h (10 km/h) 0 mm0 mm 0 min 0 W/m² 1021.3 hPa
02:36 16.7 °C 14.3 °C 86 % 8 km/h (10 km/h) 0 mm0 mm 0 min 0 W/m² 1021.3 hPa
02:30 16.8 °C 14.3 °C 85 % 7 km/h (9 km/h) 0 mm0 mm 0 min 0 W/m² 1021.4 hPa
02:24 17.2 °C 14.3 °C 83 % 8 km/h (11 km/h) 0 mm0 mm 0 min 0 W/m² 1021.3 hPa
02:18 17.2 °C 14.3 °C 83 % 8 km/h (10 km/h) 0 mm0 mm 0 min 0 W/m² 1021.4 hPa
02:12 17.2 °C 14.5 °C 84 % 9 km/h (11 km/h) 0 mm0 mm 0 min 0 W/m² 1021.5 hPa
02:06 16.9 °C 14.4 °C 85 % 9 km/h (11 km/h) 0 mm0 mm 0 min 0 W/m² 1021.6 hPa
02:00 16.9 °C 14.2 °C 84 % 8 km/h (11 km/h) 0 mm0 mm 0 min 0 W/m² 1021.7 hPa
01:54 17.1 °C 14.4 °C 84 % 8 km/h (10 km/h) 0 mm0 mm 0 min 0 W/m² 1021.6 hPa
01:48 17.4 °C 14.3 °C 82 % 8 km/h (11 km/h) 0 mm0 mm 0 min 0 W/m² 1021.7 hPa
01:42 18.2 °C 14.7 °C 80 % 9 km/h (13 km/h) 0 mm0 mm 0 min 0 W/m² 1021.7 hPa
01:36 18.5 °C 14.8 °C 79 % 10 km/h (13 km/h) 0 mm0 mm 0 min 0 W/m² 1021.6 hPa
01:30 18.3 °C 14.8 °C 80 % 10 km/h (13 km/h) 0 mm0 mm 0 min 0 W/m² 1021.7 hPa
01:24 18.1 °C 14.8 °C 81 % 9 km/h (12 km/h) 0 mm0 mm 0 min 0 W/m² 1021.7 hPa
01:18 18.3 °C 14.8 °C 80 % 9 km/h (10 km/h) 0 mm0 mm 0 min 0 W/m² 1021.7 hPa
01:12 18.4 °C 14.7 °C 79 % 10 km/h (13 km/h) 0 mm0 mm 0 min 0 W/m² 1021.6 hPa
01:06 18.6 °C 14.7 °C 78 % 9 km/h (13 km/h) 0 mm0 mm 0 min 0 W/m² 1021.6 hPa
01:00 18.6 °C 14.7 °C 78 % 8 km/h (11 km/h) 0 mm0 mm 0 min 0 W/m² 1021.7 hPa
00:54 18.4 °C 14.7 °C 79 % 8 km/h (11 km/h) 0 mm0 mm 0 min 0 W/m² 1021.7 hPa
00:48 18.3 °C 14.6 °C 79 % 8 km/h (10 km/h) 0 mm0 mm 0 min 0 W/m² 1021.8 hPa
00:42 18.4 °C 14.7 °C 79 % 9 km/h (11 km/h) 0 mm0 mm 0 min 0 W/m² 1021.7 hPa
00:36 18.4 °C 14.7 °C 79 % 10 km/h (12 km/h) 0 mm0 mm 0 min 0 W/m² 1021.7 hPa
00:30 18 °C 14.7 °C 81 % 10 km/h (12 km/h) 0 mm0 mm 0 min 0 W/m² 1021.8 hPa
00:24 18.1 °C 14.6 °C 80 % 9 km/h (11 km/h) 0 mm0 mm 0 min 0 W/m² 1021.8 hPa
00:18 18.1 °C 14.6 °C 80 % 9 km/h (11 km/h) 0 mm0 mm 0 min 0 W/m² 1021.8 hPa
00:12 18.1 °C 14.6 °C 80 % 10 km/h (13 km/h) 0 mm0 mm 0 min 0 W/m² 1021.9 hPa
00:06 18.1 °C 14.6 °C 80 % 10 km/h (13 km/h) 0 mm0 mm 0 min 0 W/m² 1021.9 hPa
00:00 19 °C 14.9 °C 77 % 8 km/h (11 km/h) 0 mm0 mm 0 min 0 W/m² 1021.8 hPa

Données via Météo-France

Relevés météo à Houdelaincourt

Cette page rassemble les observations de la station de Houdelaincourt : température, humidité, vent, précipitations et pression atmosphérique. Les graphiques facilitent le suivi de la journée, tandis que le tableau donne accès aux mesures horaires et infra-horaires disponibles.

Pour replacer ces mesures dans leur contexte, consultez la climatologie de Houdelaincourt. Retrouvez aussi la carte des observations météo en temps réel.